createdAt,value
2018-10-21T00:00:01.340Z,11.27
2018-10-21T00:02:30.643Z,11.32
2018-10-21T00:04:59.711Z,11.29
2018-10-21T00:07:28.843Z,11.28
2018-10-21T00:09:57.984Z,11.24
2018-10-21T00:12:27.133Z,11.19
2018-10-21T00:14:56.301Z,11.16
2018-10-21T00:17:25.418Z,11.15
2018-10-21T00:19:54.574Z,11.12
2018-10-21T00:22:23.675Z,11.10
2018-10-21T00:24:52.823Z,11.05
2018-10-21T00:27:21.985Z,11.05
2018-10-21T00:29:51.092Z,11.05
2018-10-21T00:32:20.299Z,11.04
2018-10-21T00:34:49.637Z,11.07
2018-10-21T00:37:18.830Z,11.06
2018-10-21T00:39:47.992Z,11.13
2018-10-21T00:42:17.195Z,11.12
2018-10-21T00:44:46.316Z,11.08
2018-10-21T00:47:15.466Z,11.08
2018-10-21T00:49:44.697Z,11.07
2018-10-21T00:52:13.825Z,11.00
2018-10-21T00:54:42.970Z,11.05
2018-10-21T00:57:12.173Z,11.07
2018-10-21T00:59:41.307Z,11.04
2018-10-21T01:02:10.438Z,11.01
2018-10-21T01:04:39.646Z,11.02
2018-10-21T01:07:09.239Z,10.96
2018-10-21T01:09:38.348Z,10.87
2018-10-21T01:12:07.506Z,10.86
2018-10-21T01:14:36.619Z,10.83
2018-10-21T01:17:05.970Z,10.85
2018-10-21T01:19:35.180Z,10.89
2018-10-21T01:22:04.437Z,10.82
2018-10-21T01:24:33.606Z,10.79
2018-10-21T01:27:02.831Z,10.77
2018-10-21T01:29:32.079Z,10.75
2018-10-21T01:32:01.384Z,10.68
2018-10-21T01:34:30.542Z,10.66
2018-10-21T01:36:59.949Z,10.70
2018-10-21T01:39:45.445Z,10.65
2018-10-21T01:42:14.586Z,10.62
2018-10-21T01:44:43.722Z,10.62
2018-10-21T01:47:12.941Z,10.26
2018-10-21T01:49:42.077Z,10.64
2018-10-21T01:52:11.195Z,10.59
2018-10-21T01:54:40.320Z,10.54
2018-10-21T01:57:09.561Z,10.49
2018-10-21T01:59:38.845Z,10.50
2018-10-21T02:02:08.029Z,10.48
2018-10-21T02:04:37.143Z,10.44
2018-10-21T02:07:06.382Z,10.41
2018-10-21T02:09:35.529Z,10.37
2018-10-21T02:12:04.674Z,10.37
2018-10-21T02:14:34.818Z,10.34
2018-10-21T02:17:03.957Z,10.34
2018-10-21T02:19:33.187Z,10.29
2018-10-21T02:22:02.439Z,10.26
2018-10-21T02:24:31.633Z,10.22
2018-10-21T02:27:00.804Z,10.19
2018-10-21T02:29:29.889Z,10.15
2018-10-21T02:31:59.009Z,10.16
2018-10-21T02:34:28.160Z,10.17
2018-10-21T02:36:57.427Z,10.13
2018-10-21T02:39:26.593Z,10.07
2018-10-21T02:41:57.021Z,10.04
2018-10-21T02:44:26.208Z,10.03
2018-10-21T02:46:56.700Z,10.04
2018-10-21T02:49:26.049Z,10.04
2018-10-21T02:52:00.434Z,10.03
2018-10-21T02:54:30.618Z,10.02
2018-10-21T02:56:59.881Z,10.00
2018-10-21T02:59:29.129Z,10.00
2018-10-21T03:01:58.314Z,9.97
2018-10-21T03:04:27.464Z,9.96
2018-10-21T03:06:56.610Z,9.94
2018-10-21T03:09:26.128Z,9.92
2018-10-21T03:11:55.372Z,9.92
2018-10-21T03:14:24.640Z,9.92
2018-10-21T03:16:53.783Z,9.93
2018-10-21T03:19:24.221Z,9.93
2018-10-21T03:21:53.354Z,9.93
2018-10-21T03:24:22.509Z,9.89
2018-10-21T03:26:51.612Z,9.80
2018-10-21T03:29:20.749Z,9.85
2018-10-21T03:31:49.862Z,9.79
2018-10-21T03:34:18.972Z,9.74
2018-10-21T03:36:48.118Z,9.72
2018-10-21T03:39:17.246Z,9.71
2018-10-21T03:41:46.422Z,9.70
2018-10-21T03:44:15.563Z,9.67
2018-10-21T03:46:44.705Z,9.62
2018-10-21T03:49:13.815Z,9.62
2018-10-21T03:51:42.941Z,9.60
2018-10-21T03:54:12.046Z,9.54
2018-10-21T03:56:41.158Z,9.53
2018-10-21T03:59:10.338Z,9.48
2018-10-21T04:01:41.125Z,9.46
2018-10-21T04:04:10.302Z,9.44
2018-10-21T04:06:39.384Z,9.43
2018-10-21T04:09:08.768Z,9.43
2018-10-21T04:11:37.877Z,9.41
2018-10-21T04:14:07.023Z,9.32
2018-10-21T04:16:36.119Z,9.31
2018-10-21T04:19:05.488Z,9.27
2018-10-21T04:21:34.650Z,9.25
2018-10-21T04:24:03.770Z,9.25
2018-10-21T04:26:32.999Z,9.26
2018-10-21T04:29:02.132Z,9.21
2018-10-21T04:31:31.265Z,9.18
2018-10-21T04:34:00.517Z,9.21
2018-10-21T04:36:31.119Z,9.23
2018-10-21T04:39:36.907Z,9.20
2018-10-21T04:42:06.028Z,9.15
2018-10-21T04:44:35.174Z,9.16
2018-10-21T04:47:04.614Z,9.18
2018-10-21T04:49:33.602Z,9.16
2018-10-21T04:52:02.815Z,9.16
2018-10-21T04:54:34.910Z,9.20
2018-10-21T04:57:06.358Z,9.19
2018-10-21T04:59:36.219Z,9.16
2018-10-21T05:02:05.412Z,9.11
2018-10-21T05:04:34.567Z,9.11
2018-10-21T05:07:03.730Z,9.11
2018-10-21T05:09:32.873Z,9.10
2018-10-21T05:12:02.003Z,9.08
2018-10-21T05:14:31.129Z,9.05
2018-10-21T05:17:00.259Z,9.04
2018-10-21T05:19:29.418Z,9.02
2018-10-21T05:21:58.608Z,9.01
2018-10-21T05:24:27.682Z,9.01
2018-10-21T05:26:56.827Z,8.99
2018-10-21T05:29:25.967Z,9.01
2018-10-21T05:31:55.094Z,9.02
2018-10-21T05:34:24.366Z,9.01
2018-10-21T05:36:53.507Z,9.01
2018-10-21T05:39:22.697Z,8.99
2018-10-21T05:41:51.937Z,8.95
2018-10-21T05:44:21.084Z,8.94
2018-10-21T05:46:51.524Z,8.94
2018-10-21T05:49:20.862Z,8.92
2018-10-21T05:51:51.207Z,8.95
2018-10-21T05:54:20.786Z,8.95
2018-10-21T05:56:51.107Z,8.95
2018-10-21T05:59:20.346Z,8.95
2018-10-21T06:01:49.563Z,8.99
2018-10-21T06:04:19.015Z,9.01
2018-10-21T06:06:48.200Z,9.02
2018-10-21T06:09:17.310Z,9.04
2018-10-21T06:11:46.501Z,9.06
2018-10-21T06:14:15.670Z,9.07
2018-10-21T06:16:50.935Z,9.09
2018-10-21T06:19:28.718Z,9.09
2018-10-21T06:21:57.883Z,9.10
2018-10-21T06:24:27.014Z,9.10
2018-10-21T06:26:56.309Z,9.08
2018-10-21T06:29:25.474Z,9.10
2018-10-21T06:31:54.708Z,9.12
2018-10-21T06:34:23.888Z,9.16
2018-10-21T06:36:53.100Z,9.18
2018-10-21T06:39:22.201Z,9.19
2018-10-21T06:41:51.649Z,9.20
2018-10-21T06:44:20.763Z,9.22
2018-10-21T06:46:49.877Z,9.27
2018-10-21T06:49:19.045Z,9.25
2018-10-21T06:51:48.193Z,9.27
2018-10-21T06:54:17.332Z,9.31
2018-10-21T06:56:46.696Z,9.30
2018-10-21T06:59:15.620Z,9.33
2018-10-21T07:01:44.894Z,9.32
2018-10-21T07:04:14.556Z,9.29
2018-10-21T07:06:43.677Z,9.29
2018-10-21T07:09:12.897Z,9.29
2018-10-21T07:11:42.074Z,9.22
2018-10-21T07:14:11.187Z,9.18
2018-10-21T07:16:42.016Z,9.21
2018-10-21T07:19:10.928Z,9.28
2018-10-21T07:21:40.158Z,9.34
2018-10-21T07:24:09.283Z,9.40
2018-10-21T07:26:38.454Z,9.43
2018-10-21T07:29:07.745Z,9.45
2018-10-21T07:31:36.944Z,9.50
2018-10-21T07:34:06.217Z,9.50
2018-10-21T07:36:38.597Z,9.52
2018-10-21T07:39:09.654Z,9.53
2018-10-21T07:41:38.984Z,9.58
2018-10-21T07:44:08.106Z,9.61
2018-10-21T07:46:37.435Z,9.62
2018-10-21T07:49:06.939Z,9.66
2018-10-21T07:51:36.053Z,9.64
2018-10-21T07:54:05.653Z,9.67
2018-10-21T07:56:34.866Z,9.64
2018-10-21T07:59:04.004Z,9.61
2018-10-21T08:01:33.264Z,9.67
2018-10-21T08:04:02.723Z,9.66
2018-10-21T08:06:43.376Z,9.66
2018-10-21T08:09:12.922Z,9.72
2018-10-21T08:11:42.069Z,9.79
2018-10-21T08:14:11.191Z,9.89
2018-10-21T08:16:40.343Z,9.97
2018-10-21T08:19:09.607Z,10.00
2018-10-21T08:21:38.910Z,10.06
2018-10-21T08:24:08.094Z,10.16
2018-10-21T08:26:37.250Z,10.23
2018-10-21T08:29:06.755Z,10.29
2018-10-21T08:31:35.907Z,10.31
2018-10-21T08:34:05.418Z,10.35
2018-10-21T08:36:34.539Z,10.37
2018-10-21T08:39:04.520Z,10.39
2018-10-21T08:41:33.678Z,10.38
2018-10-21T08:44:02.879Z,10.41
2018-10-21T08:46:32.093Z,10.41
2018-10-21T08:49:01.242Z,10.50
2018-10-21T08:51:30.387Z,10.54
2018-10-21T08:53:59.583Z,10.62
2018-10-21T08:56:28.725Z,10.73
2018-10-21T08:58:58.648Z,10.94
2018-10-21T09:01:27.896Z,11.02
2018-10-21T09:03:57.065Z,11.03
2018-10-21T09:06:26.226Z,11.12
2018-10-21T09:08:55.439Z,11.30
2018-10-21T09:11:24.714Z,11.48
2018-10-21T09:13:54.411Z,11.61
2018-10-21T09:16:23.600Z,11.68
2018-10-21T09:18:53.624Z,11.65
2018-10-21T09:21:22.870Z,11.78
2018-10-21T09:23:52.035Z,11.85
2018-10-21T09:26:21.203Z,11.80
2018-10-21T09:28:50.389Z,11.77
2018-10-21T09:31:19.531Z,11.67
2018-10-21T09:33:48.681Z,11.69
2018-10-21T09:36:17.904Z,11.67
2018-10-21T09:38:47.776Z,11.67
2018-10-21T09:41:16.995Z,11.63
2018-10-21T09:43:46.259Z,11.61
2018-10-21T09:46:15.512Z,11.56
2018-10-21T09:48:44.609Z,11.53
2018-10-21T09:51:13.980Z,11.56
2018-10-21T09:53:43.146Z,11.59
2018-10-21T09:56:12.370Z,11.64
2018-10-21T09:58:41.603Z,11.73
2018-10-21T10:01:16.094Z,11.90
2018-10-21T10:03:45.231Z,12.01
2018-10-21T10:06:14.341Z,12.03
2018-10-21T10:08:43.526Z,11.97
2018-10-21T10:11:13.217Z,11.96
2018-10-21T10:13:42.436Z,11.88
2018-10-21T10:16:11.626Z,11.88
2018-10-21T10:18:40.783Z,11.78
2018-10-21T10:21:10.055Z,11.66
2018-10-21T10:23:39.200Z,11.59
2018-10-21T10:26:08.370Z,11.46
2018-10-21T10:28:37.526Z,11.37
2018-10-21T10:31:06.947Z,11.38
2018-10-21T10:33:36.074Z,11.38
2018-10-21T10:36:05.704Z,11.33
2018-10-21T10:38:34.833Z,11.50
2018-10-21T10:41:04.043Z,11.47
2018-10-21T10:43:33.226Z,11.44
2018-10-21T10:46:02.496Z,11.45
2018-10-21T10:48:31.681Z,11.46
2018-10-21T10:51:00.877Z,11.48
2018-10-21T10:53:30.460Z,11.56
2018-10-21T10:55:59.654Z,11.59
2018-10-21T10:58:28.827Z,11.65
2018-10-21T11:00:58.100Z,11.66
2018-10-21T11:03:27.430Z,11.72
2018-10-21T11:05:56.633Z,11.79
2018-10-21T11:08:25.834Z,11.85
2018-10-21T11:10:55.067Z,11.90
2018-10-21T11:13:24.272Z,11.96
2018-10-21T11:15:53.507Z,11.97
2018-10-21T11:18:22.842Z,11.99
2018-10-21T11:20:52.156Z,12.02
2018-10-21T11:23:21.452Z,12.02
2018-10-21T11:25:51.597Z,12.10
2018-10-21T11:28:22.106Z,12.13
2018-10-21T11:30:51.346Z,12.20
2018-10-21T11:33:20.518Z,12.25
2018-10-21T11:35:49.811Z,12.29
2018-10-21T11:38:19.102Z,12.33
2018-10-21T11:40:48.408Z,12.38
2018-10-21T11:43:17.638Z,12.43
2018-10-21T11:45:47.213Z,12.49
2018-10-21T11:48:16.299Z,12.61
2018-10-21T11:50:45.479Z,12.68
2018-10-21T11:53:14.642Z,12.65
2018-10-21T11:55:43.882Z,12.60
2018-10-21T11:58:14.398Z,12.78
2018-10-21T12:00:44.641Z,12.70
2018-10-21T12:03:13.940Z,12.82
2018-10-21T12:05:43.633Z,12.89
2018-10-21T12:08:13.575Z,12.92
2018-10-21T12:10:42.751Z,12.86
2018-10-21T12:13:12.128Z,12.83
2018-10-21T12:15:41.265Z,12.81
2018-10-21T12:18:10.426Z,12.83
2018-10-21T12:20:39.966Z,12.86
2018-10-21T12:23:09.366Z,12.97
2018-10-21T12:25:38.579Z,13.26
2018-10-21T12:28:07.748Z,13.62
2018-10-21T12:30:36.922Z,13.77
2018-10-21T12:33:06.463Z,13.89
2018-10-21T12:35:35.639Z,13.97
2018-10-21T12:38:04.981Z,13.94
2018-10-21T12:40:34.141Z,13.86
2018-10-21T12:43:03.367Z,13.92
2018-10-21T12:45:32.616Z,13.90
2018-10-21T12:48:01.699Z,13.98
2018-10-21T12:50:30.859Z,14.04
2018-10-21T12:53:00.118Z,14.03
2018-10-21T12:55:29.262Z,14.13
2018-10-21T12:57:58.432Z,14.20
2018-10-21T13:00:27.665Z,14.25
2018-10-21T13:02:56.817Z,14.16
2018-10-21T13:05:25.966Z,13.99
2018-10-21T13:07:55.246Z,13.82
2018-10-21T13:10:24.399Z,13.60
2018-10-21T13:12:53.609Z,13.43
2018-10-21T13:15:22.797Z,13.28
2018-10-21T13:17:51.985Z,13.13
2018-10-21T13:20:21.225Z,13.00
2018-10-21T13:22:50.477Z,12.89
2018-10-21T13:25:19.727Z,12.83
2018-10-21T13:27:48.938Z,12.79
2018-10-21T13:30:18.152Z,12.75
2018-10-21T13:32:47.357Z,12.71
2018-10-21T13:35:16.528Z,12.72
2018-10-21T13:37:45.716Z,12.71
2018-10-21T13:40:14.998Z,12.68
2018-10-21T13:42:44.223Z,12.65
2018-10-21T13:45:13.534Z,12.65
2018-10-21T13:47:42.674Z,12.61
2018-10-21T13:50:11.883Z,12.57
2018-10-21T13:52:41.162Z,12.59
2018-10-21T13:55:10.387Z,12.62
2018-10-21T13:57:39.550Z,12.71
2018-10-21T14:00:09.390Z,12.88
2018-10-21T14:02:39.036Z,12.89
2018-10-21T14:05:09.137Z,12.99
2018-10-21T14:07:38.421Z,12.93
2018-10-21T14:10:07.681Z,12.87
2018-10-21T14:12:36.790Z,12.82
2018-10-21T14:15:06.531Z,12.74
2018-10-21T14:17:35.709Z,12.69
2018-10-21T14:20:06.027Z,12.60
2018-10-21T14:22:35.519Z,12.54
2018-10-21T14:25:04.889Z,12.51
2018-10-21T14:27:34.020Z,12.44
2018-10-21T14:30:03.343Z,12.46
2018-10-21T14:32:32.423Z,12.44
2018-10-21T14:35:01.582Z,12.44
2018-10-21T14:37:30.750Z,12.46
2018-10-21T14:39:59.908Z,12.43
2018-10-21T14:42:29.720Z,12.33
2018-10-21T14:44:58.952Z,12.36
2018-10-21T14:47:28.194Z,12.38
2018-10-21T14:49:57.395Z,12.47
2018-10-21T14:52:26.612Z,12.50
2018-10-21T14:54:55.740Z,12.48
2018-10-21T14:57:24.888Z,12.45
2018-10-21T14:59:54.059Z,12.41
2018-10-21T15:02:23.193Z,12.39
2018-10-21T15:04:52.333Z,12.32
2018-10-21T15:07:21.523Z,12.32
2018-10-21T15:09:50.892Z,12.25
2018-10-21T15:12:19.988Z,12.20
2018-10-21T15:14:49.554Z,12.18
2018-10-21T15:17:18.687Z,12.13
2018-10-21T15:19:47.857Z,12.10
2018-10-21T15:22:17.123Z,12.07
2018-10-21T15:24:46.287Z,12.05
2018-10-21T15:27:17.249Z,12.04
2018-10-21T15:29:46.459Z,12.00
2018-10-21T15:32:15.700Z,11.96
2018-10-21T15:34:44.973Z,11.98
2018-10-21T15:37:14.208Z,11.96
2018-10-21T15:39:43.470Z,11.91
2018-10-21T15:42:12.695Z,11.87
2018-10-21T15:44:41.876Z,11.86
2018-10-21T15:47:11.245Z,11.68
2018-10-21T15:49:40.629Z,11.82
2018-10-21T15:52:09.857Z,11.80
2018-10-21T15:54:39.142Z,11.79
2018-10-21T15:57:08.500Z,11.74
2018-10-21T15:59:37.671Z,11.73
2018-10-21T16:02:06.935Z,11.68
2018-10-21T16:04:36.038Z,11.64
2018-10-21T16:07:05.571Z,11.59
2018-10-21T16:09:34.887Z,11.56
2018-10-21T16:12:05.266Z,11.51
2018-10-21T16:14:34.527Z,11.49
2018-10-21T16:17:03.674Z,11.46
2018-10-21T16:19:32.845Z,11.44
2018-10-21T16:22:02.163Z,11.39
2018-10-21T16:24:31.315Z,11.32
2018-10-21T16:27:00.596Z,11.28
2018-10-21T16:29:29.773Z,11.23
2018-10-21T16:31:58.993Z,11.21
2018-10-21T16:34:28.152Z,11.19
2018-10-21T16:36:57.346Z,11.15
2018-10-21T16:39:26.558Z,11.11
2018-10-21T16:41:55.729Z,11.09
2018-10-21T16:44:24.900Z,11.08
2018-10-21T16:46:54.156Z,11.06
2018-10-21T16:49:23.482Z,11.05
2018-10-21T16:51:52.786Z,11.00
2018-10-21T16:54:22.420Z,10.98
2018-10-21T16:56:51.458Z,10.97
2018-10-21T16:59:20.765Z,10.98
2018-10-21T17:01:49.988Z,10.99
2018-10-21T17:04:19.267Z,10.99
2018-10-21T17:06:48.547Z,10.98
2018-10-21T17:09:17.871Z,10.99
2018-10-21T17:11:47.063Z,10.99
2018-10-21T17:14:16.279Z,10.98
2018-10-21T17:16:45.544Z,10.96
2018-10-21T17:19:14.773Z,10.94
2018-10-21T17:21:44.382Z,10.90
2018-10-21T17:24:13.574Z,10.86
2018-10-21T17:26:42.755Z,10.85
2018-10-21T17:29:11.979Z,10.84
2018-10-21T17:31:41.189Z,10.82
2018-10-21T17:34:10.493Z,10.79
2018-10-21T17:36:39.613Z,10.76
2018-10-21T17:39:15.291Z,10.76
2018-10-21T17:41:44.666Z,10.77
2018-10-21T17:44:13.913Z,10.75
2018-10-21T17:46:43.444Z,10.67
2018-10-21T17:49:12.709Z,10.67
2018-10-21T17:51:42.446Z,10.69
2018-10-21T17:54:17.972Z,10.70
2018-10-21T17:56:52.387Z,10.68
2018-10-21T17:59:21.674Z,10.63
2018-10-21T18:01:51.125Z,10.61
2018-10-21T18:04:20.294Z,10.61
2018-10-21T18:06:49.650Z,10.60
2018-10-21T18:09:18.806Z,10.58
2018-10-21T18:11:47.993Z,10.57
2018-10-21T18:14:17.930Z,10.55
2018-10-21T18:16:47.390Z,10.55
2018-10-21T18:19:16.725Z,10.55
2018-10-21T18:21:45.865Z,10.53
2018-10-21T18:24:15.130Z,10.51
2018-10-21T18:26:44.426Z,10.50
2018-10-21T18:29:13.606Z,10.47
2018-10-21T18:31:42.821Z,10.47
2018-10-21T18:34:12.008Z,10.46
2018-10-21T18:36:41.193Z,10.46
2018-10-21T18:39:11.181Z,10.47
2018-10-21T18:41:40.422Z,10.47
2018-10-21T18:44:10.092Z,10.48
2018-10-21T18:46:39.391Z,10.47
2018-10-21T18:49:09.117Z,10.52
2018-10-21T18:51:38.331Z,10.56
2018-10-21T18:54:07.542Z,10.54
2018-10-21T18:56:36.855Z,10.52
2018-10-21T18:59:06.062Z,10.53
2018-10-21T19:01:35.237Z,10.50
2018-10-21T19:04:04.536Z,10.47
2018-10-21T19:06:33.812Z,10.45
2018-10-21T19:09:03.494Z,10.45
2018-10-21T19:11:32.685Z,10.48
2018-10-21T19:14:02.442Z,10.47
2018-10-21T19:16:31.744Z,10.45
2018-10-21T19:19:01.332Z,10.43
2018-10-21T19:21:36.112Z,10.42
2018-10-21T19:24:05.385Z,10.37
2018-10-21T19:26:34.954Z,10.37
2018-10-21T19:29:04.204Z,10.34
2018-10-21T19:31:33.654Z,10.31
2018-10-21T19:34:02.918Z,10.30
2018-10-21T19:36:32.334Z,10.29
2018-10-21T19:39:01.722Z,10.28
2018-10-21T19:41:31.040Z,10.26
2018-10-21T19:44:00.387Z,10.27
2018-10-21T19:46:29.592Z,10.28
2018-10-21T19:48:58.769Z,10.27
2018-10-21T19:51:27.947Z,10.27
2018-10-21T19:53:57.137Z,10.26
2018-10-21T19:56:26.321Z,10.24
2018-10-21T19:58:55.563Z,10.23
2018-10-21T20:01:25.318Z,10.20
2018-10-21T20:03:54.549Z,10.19
2018-10-21T20:06:23.711Z,10.19
2018-10-21T20:08:52.919Z,10.19
2018-10-21T20:11:22.122Z,10.19
2018-10-21T20:13:51.418Z,10.17
2018-10-21T20:16:21.025Z,10.14
2018-10-21T20:18:50.229Z,10.12
2018-10-21T20:21:19.473Z,10.08
2018-10-21T20:23:48.842Z,10.06
2018-10-21T20:26:18.062Z,10.06
2018-10-21T20:28:47.235Z,10.06
2018-10-21T20:31:16.586Z,10.06
2018-10-21T20:33:45.944Z,10.07
2018-10-21T20:36:15.582Z,10.07
2018-10-21T20:38:44.792Z,10.06
2018-10-21T20:41:14.019Z,10.06
2018-10-21T20:43:44.053Z,10.07
2018-10-21T20:46:13.536Z,10.04
2018-10-21T20:48:42.920Z,10.02
2018-10-21T20:51:12.299Z,10.03
2018-10-21T20:53:41.671Z,10.03
2018-10-21T20:56:11.082Z,10.01
2018-10-21T20:58:40.464Z,9.94
2018-10-21T21:01:09.722Z,9.92
2018-10-21T21:03:39.356Z,9.92
2018-10-21T21:06:09.537Z,9.93
2018-10-21T21:08:45.363Z,9.92
2018-10-21T21:11:15.058Z,9.91
2018-10-21T21:13:44.530Z,9.92
2018-10-21T21:16:14.246Z,9.92
2018-10-21T21:18:43.666Z,9.93
2018-10-21T21:21:12.988Z,9.92
2018-10-21T21:23:42.304Z,9.92
2018-10-21T21:26:11.503Z,9.89
2018-10-21T21:28:40.688Z,9.88
2018-10-21T21:31:10.290Z,9.89
2018-10-21T21:33:39.585Z,9.89
2018-10-21T21:36:09.466Z,9.84
2018-10-21T21:38:38.750Z,9.79
2018-10-21T21:41:08.234Z,9.73
2018-10-21T21:43:38.023Z,9.67
2018-10-21T21:46:07.699Z,9.61
2018-10-21T21:48:37.157Z,9.54
2018-10-21T21:51:06.550Z,9.46
2018-10-21T21:53:35.883Z,9.37
2018-10-21T21:56:05.236Z,9.30
2018-10-21T21:58:34.416Z,9.20
2018-10-21T22:01:03.601Z,9.06
2018-10-21T22:03:32.828Z,8.96
2018-10-21T22:06:02.041Z,8.90
2018-10-21T22:08:31.247Z,8.82
2018-10-21T22:11:00.562Z,8.75
2018-10-21T22:13:29.758Z,8.68
2018-10-21T22:15:58.982Z,8.55
2018-10-21T22:18:28.160Z,8.49
2018-10-21T22:20:57.407Z,8.44
2018-10-21T22:23:27.051Z,8.36
2018-10-21T22:25:56.256Z,8.27
2018-10-21T22:28:25.487Z,8.17
2018-10-21T22:30:54.946Z,8.06
2018-10-21T22:33:24.198Z,7.98
2018-10-21T22:35:53.727Z,7.95
2018-10-21T22:38:24.001Z,7.91
2018-10-21T22:40:53.231Z,7.85
2018-10-21T22:43:22.459Z,7.78
2018-10-21T22:45:51.674Z,7.71
2018-10-21T22:48:20.938Z,7.61
2018-10-21T22:50:57.396Z,7.55
2018-10-21T22:53:26.613Z,7.47
2018-10-21T22:55:55.849Z,7.38
2018-10-21T22:58:25.088Z,7.30
2018-10-21T23:00:54.345Z,7.21
2018-10-21T23:03:23.574Z,7.12
2018-10-21T23:05:52.925Z,7.05
2018-10-21T23:08:22.157Z,7.02
2018-10-21T23:10:51.348Z,6.96
2018-10-21T23:13:20.545Z,6.84
2018-10-21T23:15:49.799Z,6.82
2018-10-21T23:18:19.061Z,6.81
2018-10-21T23:20:48.310Z,6.81
2018-10-21T23:23:17.546Z,6.79
2018-10-21T23:25:46.768Z,6.79
2018-10-21T23:28:16.046Z,6.79
2018-10-21T23:30:45.324Z,6.76
2018-10-21T23:33:14.542Z,6.74
2018-10-21T23:35:43.743Z,6.68
2018-10-21T23:38:12.961Z,6.56
2018-10-21T23:40:42.252Z,6.50
2018-10-21T23:43:11.432Z,6.46
2018-10-21T23:45:40.661Z,6.43
2018-10-21T23:48:09.978Z,6.43
2018-10-21T23:50:39.230Z,6.35
2018-10-21T23:53:08.734Z,6.30
2018-10-21T23:55:38.058Z,6.30
2018-10-21T23:58:07.394Z,6.32
